sensor_id;sensor_type;location;lat;lon;timestamp;temperature;humidity
21906;DHT22;11117;48.644;9.006;2022-07-06T00:00:27;16.30;89.70
21906;DHT22;11117;48.644;9.006;2022-07-06T00:02:53;16.30;89.90
21906;DHT22;11117;48.644;9.006;2022-07-06T00:05:18;16.20;89.90
21906;DHT22;11117;48.644;9.006;2022-07-06T00:07:44;16.20;90.10
21906;DHT22;11117;48.644;9.006;2022-07-06T00:10:09;16.10;90.00
21906;DHT22;11117;48.644;9.006;2022-07-06T00:12:35;16.10;90.10
21906;DHT22;11117;48.644;9.006;2022-07-06T00:15:01;16.10;90.10
21906;DHT22;11117;48.644;9.006;2022-07-06T00:17:26;16.10;90.10
21906;DHT22;11117;48.644;9.006;2022-07-06T00:19:54;16.10;90.10
21906;DHT22;11117;48.644;9.006;2022-07-06T00:22:20;16.10;90.20
21906;DHT22;11117;48.644;9.006;2022-07-06T00:24:46;16.10;90.20
21906;DHT22;11117;48.644;9.006;2022-07-06T00:27:11;16.10;90.20
21906;DHT22;11117;48.644;9.006;2022-07-06T00:29:37;16.00;90.10
21906;DHT22;11117;48.644;9.006;2022-07-06T00:32:06;16.00;90.30
21906;DHT22;11117;48.644;9.006;2022-07-06T00:34:31;16.00;90.20
21906;DHT22;11117;48.644;9.006;2022-07-06T00:36:57;15.90;90.20
21906;DHT22;11117;48.644;9.006;2022-07-06T00:39:22;15.90;90.10
21906;DHT22;11117;48.644;9.006;2022-07-06T00:41:48;15.90;90.20
21906;DHT22;11117;48.644;9.006;2022-07-06T00:44:14;15.90;90.20
21906;DHT22;11117;48.644;9.006;2022-07-06T00:46:40;15.90;90.20
21906;DHT22;11117;48.644;9.006;2022-07-06T00:49:05;15.90;90.20
21906;DHT22;11117;48.644;9.006;2022-07-06T00:51:35;15.80;90.20
21906;DHT22;11117;48.644;9.006;2022-07-06T00:54:04;15.80;90.30
21906;DHT22;11117;48.644;9.006;2022-07-06T00:56:32;15.70;90.30
21906;DHT22;11117;48.644;9.006;2022-07-06T00:59:02;15.70;90.40
21906;DHT22;11117;48.644;9.006;2022-07-06T01:01:30;15.60;90.40
21906;DHT22;11117;48.644;9.006;2022-07-06T01:03:56;15.60;90.30
21906;DHT22;11117;48.644;9.006;2022-07-06T01:06:21;15.60;90.40
21906;DHT22;11117;48.644;9.006;2022-07-06T01:08:47;15.60;90.40
21906;DHT22;11117;48.644;9.006;2022-07-06T01:11:13;15.60;90.50
21906;DHT22;11117;48.644;9.006;2022-07-06T01:13:41;15.60;90.40
21906;DHT22;11117;48.644;9.006;2022-07-06T01:16:07;15.50;90.40
21906;DHT22;11117;48.644;9.006;2022-07-06T01:18:33;15.50;90.30
21906;DHT22;11117;48.644;9.006;2022-07-06T01:21:12;15.50;90.20
21906;DHT22;11117;48.644;9.006;2022-07-06T01:23:43;15.50;90.30
21906;DHT22;11117;48.644;9.006;2022-07-06T01:26:13;15.50;90.30
21906;DHT22;11117;48.644;9.006;2022-07-06T01:28:40;15.50;90.20
21906;DHT22;11117;48.644;9.006;2022-07-06T01:31:13;15.50;90.30
21906;DHT22;11117;48.644;9.006;2022-07-06T01:33:39;15.40;90.20
21906;DHT22;11117;48.644;9.006;2022-07-06T01:36:07;15.40;90.20
21906;DHT22;11117;48.644;9.006;2022-07-06T01:38:46;15.40;90.30
21906;DHT22;11117;48.644;9.006;2022-07-06T01:41:15;15.30;90.30
21906;DHT22;11117;48.644;9.006;2022-07-06T01:43:41;15.30;90.20
21906;DHT22;11117;48.644;9.006;2022-07-06T01:46:08;15.30;90.30
21906;DHT22;11117;48.644;9.006;2022-07-06T01:48:34;15.30;90.30
21906;DHT22;11117;48.644;9.006;2022-07-06T01:51:00;15.30;90.30
21906;DHT22;11117;48.644;9.006;2022-07-06T01:53:25;15.20;90.30
21906;DHT22;11117;48.644;9.006;2022-07-06T01:55:51;15.20;90.30
21906;DHT22;11117;48.644;9.006;2022-07-06T01:58:17;15.20;90.70
21906;DHT22;11117;48.644;9.006;2022-07-06T02:00:42;15.20;90.40
21906;DHT22;11117;48.644;9.006;2022-07-06T02:03:08;15.20;90.50
21906;DHT22;11117;48.644;9.006;2022-07-06T02:05:34;15.10;90.60
21906;DHT22;11117;48.644;9.006;2022-07-06T02:07:59;15.10;90.60
21906;DHT22;11117;48.644;9.006;2022-07-06T02:10:25;15.10;90.80
21906;DHT22;11117;48.644;9.006;2022-07-06T02:12:50;14.90;90.90
21906;DHT22;11117;48.644;9.006;2022-07-06T02:15:16;14.90;91.10
21906;DHT22;11117;48.644;9.006;2022-07-06T02:17:42;14.90;91.20
21906;DHT22;11117;48.644;9.006;2022-07-06T02:20:08;14.80;91.20
21906;DHT22;11117;48.644;9.006;2022-07-06T02:22:34;14.80;91.30
21906;DHT22;11117;48.644;9.006;2022-07-06T02:25:00;14.70;91.40
21906;DHT22;11117;48.644;9.006;2022-07-06T02:27:25;14.70;91.50
21906;DHT22;11117;48.644;9.006;2022-07-06T02:29:51;14.70;91.60
21906;DHT22;11117;48.644;9.006;2022-07-06T02:32:17;14.70;91.70
21906;DHT22;11117;48.644;9.006;2022-07-06T02:34:42;14.60;91.70
21906;DHT22;11117;48.644;9.006;2022-07-06T02:37:08;14.50;91.70
21906;DHT22;11117;48.644;9.006;2022-07-06T02:39:34;14.60;91.90
21906;DHT22;11117;48.644;9.006;2022-07-06T02:42:00;14.50;91.90
21906;DHT22;11117;48.644;9.006;2022-07-06T02:44:25;14.50;92.00
21906;DHT22;11117;48.644;9.006;2022-07-06T02:46:51;14.50;92.10
21906;DHT22;11117;48.644;9.006;2022-07-06T02:49:19;14.50;92.20
21906;DHT22;11117;48.644;9.006;2022-07-06T02:51:45;14.50;92.30
21906;DHT22;11117;48.644;9.006;2022-07-06T02:54:10;14.40;92.40
21906;DHT22;11117;48.644;9.006;2022-07-06T02:56:36;14.40;92.50
21906;DHT22;11117;48.644;9.006;2022-07-06T02:59:02;14.40;92.70
21906;DHT22;11117;48.644;9.006;2022-07-06T03:01:27;14.30;92.80
21906;DHT22;11117;48.644;9.006;2022-07-06T03:03:53;14.30;92.90
21906;DHT22;11117;48.644;9.006;2022-07-06T03:06:18;14.30;93.40
21906;DHT22;11117;48.644;9.006;2022-07-06T03:08:44;14.30;93.20
21906;DHT22;11117;48.644;9.006;2022-07-06T03:11:10;14.30;93.30
21906;DHT22;11117;48.644;9.006;2022-07-06T03:13:35;14.20;93.50
21906;DHT22;11117;48.644;9.006;2022-07-06T03:16:01;14.20;93.60
21906;DHT22;11117;48.644;9.006;2022-07-06T03:18:27;14.10;93.80
21906;DHT22;11117;48.644;9.006;2022-07-06T03:20:52;14.20;94.00
21906;DHT22;11117;48.644;9.006;2022-07-06T03:23:18;14.20;94.20
21906;DHT22;11117;48.644;9.006;2022-07-06T03:25:44;14.10;94.20
21906;DHT22;11117;48.644;9.006;2022-07-06T03:28:10;14.10;94.40
21906;DHT22;11117;48.644;9.006;2022-07-06T03:30:37;14.10;94.70
21906;DHT22;11117;48.644;9.006;2022-07-06T03:33:09;14.10;94.80
21906;DHT22;11117;48.644;9.006;2022-07-06T03:35:35;14.10;95.00
21906;DHT22;11117;48.644;9.006;2022-07-06T03:38:03;14.10;95.10
21906;DHT22;11117;48.644;9.006;2022-07-06T03:40:31;14.00;95.30
21906;DHT22;11117;48.644;9.006;2022-07-06T03:42:57;14.00;95.50
21906;DHT22;11117;48.644;9.006;2022-07-06T03:45:23;14.00;95.60
21906;DHT22;11117;48.644;9.006;2022-07-06T03:47:48;14.00;95.90
21906;DHT22;11117;48.644;9.006;2022-07-06T03:50:14;14.00;95.90
21906;DHT22;11117;48.644;9.006;2022-07-06T03:52:46;14.00;96.00
21906;DHT22;11117;48.644;9.006;2022-07-06T03:55:12;13.90;96.20
21906;DHT22;11117;48.644;9.006;2022-07-06T03:57:38;13.80;96.40
21906;DHT22;11117;48.644;9.006;2022-07-06T04:00:04;13.70;97.20
21906;DHT22;11117;48.644;9.006;2022-07-06T04:02:30;13.70;97.10
21906;DHT22;11117;48.644;9.006;2022-07-06T04:04:59;13.70;97.60
21906;DHT22;11117;48.644;9.006;2022-07-06T04:07:25;13.70;97.60
21906;DHT22;11117;48.644;9.006;2022-07-06T04:09:51;13.70;97.80
21906;DHT22;11117;48.644;9.006;2022-07-06T04:12:16;13.80;98.00
21906;DHT22;11117;48.644;9.006;2022-07-06T04:14:42;13.80;97.70
21906;DHT22;11117;48.644;9.006;2022-07-06T04:17:08;14.00;97.50
21906;DHT22;11117;48.644;9.006;2022-07-06T04:19:34;14.10;97.20
21906;DHT22;11117;48.644;9.006;2022-07-06T04:22:00;14.30;96.90
21906;DHT22;11117;48.644;9.006;2022-07-06T04:24:26;14.50;96.40
21906;DHT22;11117;48.644;9.006;2022-07-06T04:26:52;14.50;96.10
21906;DHT22;11117;48.644;9.006;2022-07-06T04:29:17;14.60;95.90
21906;DHT22;11117;48.644;9.006;2022-07-06T04:31:43;14.70;95.80
21906;DHT22;11117;48.644;9.006;2022-07-06T04:34:08;14.80;95.50
21906;DHT22;11117;48.644;9.006;2022-07-06T04:36:34;14.90;95.30
21906;DHT22;11117;48.644;9.006;2022-07-06T04:38:59;14.90;95.10
21906;DHT22;11117;48.644;9.006;2022-07-06T04:41:25;15.00;95.10
21906;DHT22;11117;48.644;9.006;2022-07-06T04:43:51;15.10;95.00
21906;DHT22;11117;48.644;9.006;2022-07-06T04:46:16;15.20;95.00
21906;DHT22;11117;48.644;9.006;2022-07-06T04:48:42;15.40;94.60
21906;DHT22;11117;48.644;9.006;2022-07-06T04:51:07;15.40;94.40
21906;DHT22;11117;48.644;9.006;2022-07-06T04:53:33;15.60;94.30
21906;DHT22;11117;48.644;9.006;2022-07-06T04:55:59;15.70;94.20
21906;DHT22;11117;48.644;9.006;2022-07-06T04:58:24;15.80;94.10
21906;DHT22;11117;48.644;9.006;2022-07-06T05:00:50;15.80;94.00
21906;DHT22;11117;48.644;9.006;2022-07-06T05:03:15;15.90;93.80
21906;DHT22;11117;48.644;9.006;2022-07-06T05:05:41;16.20;93.70
21906;DHT22;11117;48.644;9.006;2022-07-06T05:08:06;16.20;93.60
21906;DHT22;11117;48.644;9.006;2022-07-06T05:10:32;16.30;93.40
21906;DHT22;11117;48.644;9.006;2022-07-06T05:13:00;16.40;93.20
21906;DHT22;11117;48.644;9.006;2022-07-06T05:15:26;16.30;93.10
21906;DHT22;11117;48.644;9.006;2022-07-06T05:17:51;16.50;93.40
21906;DHT22;11117;48.644;9.006;2022-07-06T05:20:19;16.50;93.10
21906;DHT22;11117;48.644;9.006;2022-07-06T05:22:45;16.50;93.30
21906;DHT22;11117;48.644;9.006;2022-07-06T05:25:11;16.70;93.00
21906;DHT22;11117;48.644;9.006;2022-07-06T05:27:36;16.80;92.80
21906;DHT22;11117;48.644;9.006;2022-07-06T05:30:02;17.10;92.60
21906;DHT22;11117;48.644;9.006;2022-07-06T05:32:28;17.30;92.40
21906;DHT22;11117;48.644;9.006;2022-07-06T05:34:56;17.30;92.20
21906;DHT22;11117;48.644;9.006;2022-07-06T05:37:21;17.30;91.90
21906;DHT22;11117;48.644;9.006;2022-07-06T05:39:47;17.40;92.00
21906;DHT22;11117;48.644;9.006;2022-07-06T05:42:12;17.40;92.00
21906;DHT22;11117;48.644;9.006;2022-07-06T05:44:38;17.50;91.70
21906;DHT22;11117;48.644;9.006;2022-07-06T05:47:04;17.50;91.80
21906;DHT22;11117;48.644;9.006;2022-07-06T05:49:29;17.60;91.70
21906;DHT22;11117;48.644;9.006;2022-07-06T05:51:55;17.70;91.40
21906;DHT22;11117;48.644;9.006;2022-07-06T05:54:20;17.70;91.50
21906;DHT22;11117;48.644;9.006;2022-07-06T05:56:46;17.70;91.30
21906;DHT22;11117;48.644;9.006;2022-07-06T05:59:12;17.70;91.20
21906;DHT22;11117;48.644;9.006;2022-07-06T06:01:37;17.60;91.40
21906;DHT22;11117;48.644;9.006;2022-07-06T06:04:03;17.70;91.60
21906;DHT22;11117;48.644;9.006;2022-07-06T06:06:28;17.70;91.60
21906;DHT22;11117;48.644;9.006;2022-07-06T06:08:54;18.00;91.40
21906;DHT22;11117;48.644;9.006;2022-07-06T06:11:22;18.20;91.10
21906;DHT22;11117;48.644;9.006;2022-07-06T06:13:48;18.40;90.80
21906;DHT22;11117;48.644;9.006;2022-07-06T06:16:14;18.40;90.80
21906;DHT22;11117;48.644;9.006;2022-07-06T06:18:39;18.50;90.30
21906;DHT22;11117;48.644;9.006;2022-07-06T06:21:05;18.40;90.00
21906;DHT22;11117;48.644;9.006;2022-07-06T06:23:30;18.40;90.00
21906;DHT22;11117;48.644;9.006;2022-07-06T06:25:56;18.60;89.00
21906;DHT22;11117;48.644;9.006;2022-07-06T06:28:21;18.40;89.50
21906;DHT22;11117;48.644;9.006;2022-07-06T06:30:47;18.50;90.20
21906;DHT22;11117;48.644;9.006;2022-07-06T06:33:17;18.60;90.40
21906;DHT22;11117;48.644;9.006;2022-07-06T06:35:48;18.50;90.10
21906;DHT22;11117;48.644;9.006;2022-07-06T06:38:14;18.40;89.40
21906;DHT22;11117;48.644;9.006;2022-07-06T06:40:40;18.30;89.50
21906;DHT22;11117;48.644;9.006;2022-07-06T06:43:06;18.50;89.70
21906;DHT22;11117;48.644;9.006;2022-07-06T06:45:32;18.40;88.70
21906;DHT22;11117;48.644;9.006;2022-07-06T06:47:58;18.40;89.30
21906;DHT22;11117;48.644;9.006;2022-07-06T06:50:23;18.30;89.30
21906;DHT22;11117;48.644;9.006;2022-07-06T06:52:50;18.30;89.80
21906;DHT22;11117;48.644;9.006;2022-07-06T06:55:16;18.60;89.50
21906;DHT22;11117;48.644;9.006;2022-07-06T06:57:51;18.50;88.50
21906;DHT22;11117;48.644;9.006;2022-07-06T07:00:17;18.40;89.20
21906;DHT22;11117;48.644;9.006;2022-07-06T07:02:42;18.40;89.20
21906;DHT22;11117;48.644;9.006;2022-07-06T07:05:08;18.50;89.00
21906;DHT22;11117;48.644;9.006;2022-07-06T07:07:36;18.40;89.50
21906;DHT22;11117;48.644;9.006;2022-07-06T07:10:03;18.60;88.70
21906;DHT22;11117;48.644;9.006;2022-07-06T07:12:29;18.50;88.30
21906;DHT22;11117;48.644;9.006;2022-07-06T07:14:55;18.60;88.30
21906;DHT22;11117;48.644;9.006;2022-07-06T07:17:20;18.60;87.80
21906;DHT22;11117;48.644;9.006;2022-07-06T07:19:46;18.70;88.20
21906;DHT22;11117;48.644;9.006;2022-07-06T07:22:11;18.90;87.40
21906;DHT22;11117;48.644;9.006;2022-07-06T07:24:37;18.90;87.50
21906;DHT22;11117;48.644;9.006;2022-07-06T07:27:03;19.00;86.90
21906;DHT22;11117;48.644;9.006;2022-07-06T07:29:28;18.80;87.90
21906;DHT22;11117;48.644;9.006;2022-07-06T07:31:54;19.00;88.60
21906;DHT22;11117;48.644;9.006;2022-07-06T07:34:22;19.10;88.10
21906;DHT22;11117;48.644;9.006;2022-07-06T07:36:48;19.10;87.00
21906;DHT22;11117;48.644;9.006;2022-07-06T07:39:14;19.10;87.60
21906;DHT22;11117;48.644;9.006;2022-07-06T07:41:39;19.10;87.80
21906;DHT22;11117;48.644;9.006;2022-07-06T07:44:05;19.00;86.20
21906;DHT22;11117;48.644;9.006;2022-07-06T07:46:30;19.00;86.60
21906;DHT22;11117;48.644;9.006;2022-07-06T07:48:56;19.20;86.30
21906;DHT22;11117;48.644;9.006;2022-07-06T07:51:22;19.20;85.80
21906;DHT22;11117;48.644;9.006;2022-07-06T07:53:47;19.10;87.20
21906;DHT22;11117;48.644;9.006;2022-07-06T07:56:13;19.10;86.00
21906;DHT22;11117;48.644;9.006;2022-07-06T07:58:38;19.20;86.30
21906;DHT22;11117;48.644;9.006;2022-07-06T08:01:04;19.30;86.20
21906;DHT22;11117;48.644;9.006;2022-07-06T08:03:30;19.30;86.10
21906;DHT22;11117;48.644;9.006;2022-07-06T08:05:56;19.40;86.00
21906;DHT22;11117;48.644;9.006;2022-07-06T08:08:22;19.60;84.80
21906;DHT22;11117;48.644;9.006;2022-07-06T08:10:47;19.60;84.50
21906;DHT22;11117;48.644;9.006;2022-07-06T08:13:13;19.70;83.10
21906;DHT22;11117;48.644;9.006;2022-07-06T08:15:38;19.90;84.70
21906;DHT22;11117;48.644;9.006;2022-07-06T08:18:04;19.80;83.00
21906;DHT22;11117;48.644;9.006;2022-07-06T08:20:30;19.90;83.90
21906;DHT22;11117;48.644;9.006;2022-07-06T08:22:56;20.20;82.80
21906;DHT22;11117;48.644;9.006;2022-07-06T08:25:21;20.30;81.80
21906;DHT22;11117;48.644;9.006;2022-07-06T08:27:47;20.10;81.90
21906;DHT22;11117;48.644;9.006;2022-07-06T08:30:12;20.30;82.50
21906;DHT22;11117;48.644;9.006;2022-07-06T08:32:40;20.20;81.60
21906;DHT22;11117;48.644;9.006;2022-07-06T08:35:06;20.30;82.40
21906;DHT22;11117;48.644;9.006;2022-07-06T08:37:31;20.40;81.60
21906;DHT22;11117;48.644;9.006;2022-07-06T08:39:57;20.70;82.10
21906;DHT22;11117;48.644;9.006;2022-07-06T08:42:32;20.80;81.40
21906;DHT22;11117;48.644;9.006;2022-07-06T08:44:59;20.40;81.80
21906;DHT22;11117;48.644;9.006;2022-07-06T08:47:27;20.40;82.60
21906;DHT22;11117;48.644;9.006;2022-07-06T08:49:53;20.70;83.30
21906;DHT22;11117;48.644;9.006;2022-07-06T08:52:19;21.00;82.90
21906;DHT22;11117;48.644;9.006;2022-07-06T08:54:45;21.00;81.30
21906;DHT22;11117;48.644;9.006;2022-07-06T08:57:11;21.10;80.70
21906;DHT22;11117;48.644;9.006;2022-07-06T08:59:38;21.40;81.30
21906;DHT22;11117;48.644;9.006;2022-07-06T09:02:04;21.60;79.10
21906;DHT22;11117;48.644;9.006;2022-07-06T09:04:29;21.70;78.90
21906;DHT22;11117;48.644;9.006;2022-07-06T09:06:57;21.60;78.40
21906;DHT22;11117;48.644;9.006;2022-07-06T09:09:24;21.50;78.40
21906;DHT22;11117;48.644;9.006;2022-07-06T09:11:50;21.40;77.90
21906;DHT22;11117;48.644;9.006;2022-07-06T09:14:17;21.50;78.90
21906;DHT22;11117;48.644;9.006;2022-07-06T09:16:42;21.60;78.70
21906;DHT22;11117;48.644;9.006;2022-07-06T09:19:11;21.50;77.10
21906;DHT22;11117;48.644;9.006;2022-07-06T09:21:37;21.60;76.40
21906;DHT22;11117;48.644;9.006;2022-07-06T09:24:23;21.60;75.50
21906;DHT22;11117;48.644;9.006;2022-07-06T09:26:58;21.70;76.40
21906;DHT22;11117;48.644;9.006;2022-07-06T09:29:31;21.60;76.00
21906;DHT22;11117;48.644;9.006;2022-07-06T09:32:01;21.80;77.10
21906;DHT22;11117;48.644;9.006;2022-07-06T09:34:44;21.80;77.10
21906;DHT22;11117;48.644;9.006;2022-07-06T09:37:11;21.90;77.00
21906;DHT22;11117;48.644;9.006;2022-07-06T09:39:37;22.10;77.00
21906;DHT22;11117;48.644;9.006;2022-07-06T09:42:05;22.20;76.50
21906;DHT22;11117;48.644;9.006;2022-07-06T09:44:32;22.30;75.50
21906;DHT22;11117;48.644;9.006;2022-07-06T09:47:01;22.30;76.60
21906;DHT22;11117;48.644;9.006;2022-07-06T09:49:27;21.90;73.80
21906;DHT22;11117;48.644;9.006;2022-07-06T09:51:56;21.80;75.90
21906;DHT22;11117;48.644;9.006;2022-07-06T09:54:22;21.80;78.10
21906;DHT22;11117;48.644;9.006;2022-07-06T09:56:49;22.10;78.10
21906;DHT22;11117;48.644;9.006;2022-07-06T09:59:16;22.20;75.40
21906;DHT22;11117;48.644;9.006;2022-07-06T10:01:42;22.60;75.40
21906;DHT22;11117;48.644;9.006;2022-07-06T10:04:10;22.70;78.00
21906;DHT22;11117;48.644;9.006;2022-07-06T10:06:36;22.40;74.40
21906;DHT22;11117;48.644;9.006;2022-07-06T10:12:35;22.90;73.90
21906;DHT22;11117;48.644;9.006;2022-07-06T10:15:16;23.50;74.50
21906;DHT22;11117;48.644;9.006;2022-07-06T10:19:09;23.40;75.40
21906;DHT22;11117;48.644;9.006;2022-07-06T10:21:06;23.10;74.70
21906;DHT22;11117;48.644;9.006;2022-07-06T10:23:31;23.10;74.30
21906;DHT22;11117;48.644;9.006;2022-07-06T10:25:58;23.10;74.50
21906;DHT22;11117;48.644;9.006;2022-07-06T10:28:26;23.10;75.50
21906;DHT22;11117;48.644;9.006;2022-07-06T10:30:52;23.40;75.10
21906;DHT22;11117;48.644;9.006;2022-07-06T10:33:20;23.00;73.80
21906;DHT22;11117;48.644;9.006;2022-07-06T10:35:46;22.90;73.90
21906;DHT22;11117;48.644;9.006;2022-07-06T10:38:18;22.60;73.80
21906;DHT22;11117;48.644;9.006;2022-07-06T10:40:44;22.90;74.30
21906;DHT22;11117;48.644;9.006;2022-07-06T10:43:09;23.10;74.20
21906;DHT22;11117;48.644;9.006;2022-07-06T10:50:48;23.00;75.90
21906;DHT22;11117;48.644;9.006;2022-07-06T10:53:35;22.80;74.90
21906;DHT22;11117;48.644;9.006;2022-07-06T10:56:04;22.80;75.40
21906;DHT22;11117;48.644;9.006;2022-07-06T10:58:37;22.40;75.90
21906;DHT22;11117;48.644;9.006;2022-07-06T11:01:03;22.70;75.70
21906;DHT22;11117;48.644;9.006;2022-07-06T11:03:50;22.60;75.80
21906;DHT22;11117;48.644;9.006;2022-07-06T11:06:32;22.60;76.80
21906;DHT22;11117;48.644;9.006;2022-07-06T11:09:07;22.80;76.60
21906;DHT22;11117;48.644;9.006;2022-07-06T11:14:01;22.40;75.80
21906;DHT22;11117;48.644;9.006;2022-07-06T11:16:31;22.50;77.30
21906;DHT22;11117;48.644;9.006;2022-07-06T11:21:57;22.30;77.20
21906;DHT22;11117;48.644;9.006;2022-07-06T11:24:29;22.30;78.10
21906;DHT22;11117;48.644;9.006;2022-07-06T11:26:56;22.20;77.20
21906;DHT22;11117;48.644;9.006;2022-07-06T11:29:23;22.90;77.10
21906;DHT22;11117;48.644;9.006;2022-07-06T11:31:52;23.40;77.00
21906;DHT22;11117;48.644;9.006;2022-07-06T11:34:20;23.80;75.20
21906;DHT22;11117;48.644;9.006;2022-07-06T11:36:47;24.10;73.80
21906;DHT22;11117;48.644;9.006;2022-07-06T11:39:13;24.40;74.60
21906;DHT22;11117;48.644;9.006;2022-07-06T11:41:39;23.90;74.50
21906;DHT22;11117;48.644;9.006;2022-07-06T11:44:06;23.80;73.80
21906;DHT22;11117;48.644;9.006;2022-07-06T11:46:33;23.70;74.60
21906;DHT22;11117;48.644;9.006;2022-07-06T11:51:30;23.50;75.20
21906;DHT22;11117;48.644;9.006;2022-07-06T11:53:58;23.40;75.80
21906;DHT22;11117;48.644;9.006;2022-07-06T11:56:24;23.60;75.40
21906;DHT22;11117;48.644;9.006;2022-07-06T11:58:50;23.60;74.80
21906;DHT22;11117;48.644;9.006;2022-07-06T12:01:21;23.80;74.20
21906;DHT22;11117;48.644;9.006;2022-07-06T12:03:47;24.00;74.70
21906;DHT22;11117;48.644;9.006;2022-07-06T12:06:15;24.00;75.10
21906;DHT22;11117;48.644;9.006;2022-07-06T12:08:42;23.80;75.40
21906;DHT22;11117;48.644;9.006;2022-07-06T12:11:08;23.90;75.10
21906;DHT22;11117;48.644;9.006;2022-07-06T12:13:38;24.00;74.80
21906;DHT22;11117;48.644;9.006;2022-07-06T12:16:13;23.90;75.00
21906;DHT22;11117;48.644;9.006;2022-07-06T12:18:39;23.40;75.60
21906;DHT22;11117;48.644;9.006;2022-07-06T12:21:09;23.60;76.50
21906;DHT22;11117;48.644;9.006;2022-07-06T12:23:43;23.40;75.60
21906;DHT22;11117;48.644;9.006;2022-07-06T12:26:10;23.60;76.30
21906;DHT22;11117;48.644;9.006;2022-07-06T12:28:35;23.60;76.20
21906;DHT22;11117;48.644;9.006;2022-07-06T12:31:01;23.30;76.50
21906;DHT22;11117;48.644;9.006;2022-07-06T12:33:27;22.80;77.00
21906;DHT22;11117;48.644;9.006;2022-07-06T12:35:52;23.00;75.90
21906;DHT22;11117;48.644;9.006;2022-07-06T12:38:27;23.40;76.60
21906;DHT22;11117;48.644;9.006;2022-07-06T12:40:53;23.10;75.30
21906;DHT22;11117;48.644;9.006;2022-07-06T12:43:40;23.60;76.80
21906;DHT22;11117;48.644;9.006;2022-07-06T12:46:36;23.50;75.80
21906;DHT22;11117;48.644;9.006;2022-07-06T12:49:10;23.40;74.60
21906;DHT22;11117;48.644;9.006;2022-07-06T12:57:13;23.40;76.00
21906;DHT22;11117;48.644;9.006;2022-07-06T12:59:42;23.70;75.20
21906;DHT22;11117;48.644;9.006;2022-07-06T13:02:16;23.80;74.70
21906;DHT22;11117;48.644;9.006;2022-07-06T13:04:42;23.60;75.20
21906;DHT22;11117;48.644;9.006;2022-07-06T13:07:18;23.80;75.40
21906;DHT22;11117;48.644;9.006;2022-07-06T13:09:43;23.40;75.50
21906;DHT22;11117;48.644;9.006;2022-07-06T13:12:09;23.20;74.70
21906;DHT22;11117;48.644;9.006;2022-07-06T13:14:35;23.30;75.40
21906;DHT22;11117;48.644;9.006;2022-07-06T13:17:00;23.30;76.20
21906;DHT22;11117;48.644;9.006;2022-07-06T13:19:26;23.30;74.70
21906;DHT22;11117;48.644;9.006;2022-07-06T13:21:51;23.20;74.70
21906;DHT22;11117;48.644;9.006;2022-07-06T13:24:17;23.10;75.60
21906;DHT22;11117;48.644;9.006;2022-07-06T13:26:43;23.10;75.80
21906;DHT22;11117;48.644;9.006;2022-07-06T13:29:08;23.30;75.30
21906;DHT22;11117;48.644;9.006;2022-07-06T13:31:34;23.00;75.90
21906;DHT22;11117;48.644;9.006;2022-07-06T13:34:00;23.20;76.10
21906;DHT22;11117;48.644;9.006;2022-07-06T13:36:25;23.30;75.30
21906;DHT22;11117;48.644;9.006;2022-07-06T13:38:51;23.20;75.40
21906;DHT22;11117;48.644;9.006;2022-07-06T13:41:17;23.20;75.30
21906;DHT22;11117;48.644;9.006;2022-07-06T13:43:42;23.10;75.60
21906;DHT22;11117;48.644;9.006;2022-07-06T13:46:08;22.90;75.20
21906;DHT22;11117;48.644;9.006;2022-07-06T13:48:34;22.80;74.80
21906;DHT22;11117;48.644;9.006;2022-07-06T13:51:01;22.90;75.00
21906;DHT22;11117;48.644;9.006;2022-07-06T13:54:02;22.90;75.40
21906;DHT22;11117;48.644;9.006;2022-07-06T13:56:27;22.70;75.80
21906;DHT22;11117;48.644;9.006;2022-07-06T13:58:53;22.80;75.80
21906;DHT22;11117;48.644;9.006;2022-07-06T14:01:19;22.80;74.80
21906;DHT22;11117;48.644;9.006;2022-07-06T14:03:45;22.80;75.50
21906;DHT22;11117;48.644;9.006;2022-07-06T14:06:11;22.80;75.50
21906;DHT22;11117;48.644;9.006;2022-07-06T14:08:38;22.70;77.20
21906;DHT22;11117;48.644;9.006;2022-07-06T14:11:14;22.80;75.90
21906;DHT22;11117;48.644;9.006;2022-07-06T14:13:52;22.70;75.70
21906;DHT22;11117;48.644;9.006;2022-07-06T14:16:20;22.90;76.90
21906;DHT22;11117;48.644;9.006;2022-07-06T14:18:46;22.50;75.00
21906;DHT22;11117;48.644;9.006;2022-07-06T14:21:11;22.70;76.50
21906;DHT22;11117;48.644;9.006;2022-07-06T14:23:37;22.80;75.00
21906;DHT22;11117;48.644;9.006;2022-07-06T14:26:02;22.90;73.70
21906;DHT22;11117;48.644;9.006;2022-07-06T14:28:28;22.60;74.50
21906;DHT22;11117;48.644;9.006;2022-07-06T14:30:54;22.50;74.80
21906;DHT22;11117;48.644;9.006;2022-07-06T14:33:19;22.40;75.20
21906;DHT22;11117;48.644;9.006;2022-07-06T14:35:47;22.70;74.20
21906;DHT22;11117;48.644;9.006;2022-07-06T14:38:14;22.60;74.90
21906;DHT22;11117;48.644;9.006;2022-07-06T14:40:40;22.70;75.40
21906;DHT22;11117;48.644;9.006;2022-07-06T14:43:06;22.60;75.20
21906;DHT22;11117;48.644;9.006;2022-07-06T14:45:31;22.80;75.50
21906;DHT22;11117;48.644;9.006;2022-07-06T14:47:57;22.90;74.80
21906;DHT22;11117;48.644;9.006;2022-07-06T14:50:24;22.90;75.60
21906;DHT22;11117;48.644;9.006;2022-07-06T14:52:53;22.90;74.30
21906;DHT22;11117;48.644;9.006;2022-07-06T14:55:19;22.90;74.40
21906;DHT22;11117;48.644;9.006;2022-07-06T14:57:44;22.90;74.10
21906;DHT22;11117;48.644;9.006;2022-07-06T15:00:10;23.00;73.60
21906;DHT22;11117;48.644;9.006;2022-07-06T15:02:36;22.80;73.70
21906;DHT22;11117;48.644;9.006;2022-07-06T15:05:02;22.60;74.10
21906;DHT22;11117;48.644;9.006;2022-07-06T15:07:28;22.80;74.60
21906;DHT22;11117;48.644;9.006;2022-07-06T15:09:54;22.90;74.40
21906;DHT22;11117;48.644;9.006;2022-07-06T15:12:19;23.00;74.50
21906;DHT22;11117;48.644;9.006;2022-07-06T15:14:45;23.10;74.20
21906;DHT22;11117;48.644;9.006;2022-07-06T15:17:10;23.10;73.00
21906;DHT22;11117;48.644;9.006;2022-07-06T15:19:36;23.00;73.10
21906;DHT22;11117;48.644;9.006;2022-07-06T15:22:02;23.20;73.70
21906;DHT22;11117;48.644;9.006;2022-07-06T15:24:28;23.30;73.60
21906;DHT22;11117;48.644;9.006;2022-07-06T15:26:53;23.20;73.30
21906;DHT22;11117;48.644;9.006;2022-07-06T15:29:19;23.20;72.70
21906;DHT22;11117;48.644;9.006;2022-07-06T15:31:45;23.30;72.70
21906;DHT22;11117;48.644;9.006;2022-07-06T15:34:44;23.50;73.10
21906;DHT22;11117;48.644;9.006;2022-07-06T15:37:38;23.20;72.10
21906;DHT22;11117;48.644;9.006;2022-07-06T15:40:23;23.40;72.60
21906;DHT22;11117;48.644;9.006;2022-07-06T15:43:00;23.20;72.50
21906;DHT22;11117;48.644;9.006;2022-07-06T15:45:35;23.20;72.60
21906;DHT22;11117;48.644;9.006;2022-07-06T15:48:29;23.10;71.20
21906;DHT22;11117;48.644;9.006;2022-07-06T15:50:56;23.20;71.40
21906;DHT22;11117;48.644;9.006;2022-07-06T15:53:41;23.20;71.90